Time;durP1;ratioP1;P1;durP2;ratioP2;P2;SDS_P1;SDS_P2;PMS_P1;PMS_P2;Temp;Humidity;BMP_temperature;BMP_pressure;BME280_temperature;BME280_humidity;BME280_pressure;Samples;Min_cycle;Max_cycle;Signal;HPM_P1;HPM_P2
2022/05/26 00:02:00;;;;;;;45.72;24.02;;;;;;;;;;6290276;28;20059;-58
2022/05/26 00:05:00;;;;;;;51.85;23.45;;;;;;;;;;6290572;28;20048;-57
2022/05/26 00:08:01;;;;;;;49.70;23.30;;;;;;;;;;6287544;28;20576;-55
2022/05/26 00:11:04;;;;;;;43.45;21.55;;;;;;;;;;6289991;28;20079;-55
2022/05/26 00:14:08;;;;;;;46.85;22.35;;;;;;;;;;6288688;28;20044;-55
2022/05/26 00:17:09;;;;;;;42.92;21.35;;;;;;;;;;6288217;28;20048;-53
2022/05/26 00:20:10;;;;;;;44.40;22.35;;;;;;;;;;6288401;28;20464;-54
2022/05/26 00:23:11;;;;;;;47.53;22.73;;;;;;;;;;6291622;28;20518;-54
2022/05/26 00:26:11;;;;;;;43.78;22.52;;;;;;;;;;6305717;28;20048;-55
2022/05/26 00:29:13;;;;;;;45.33;22.90;;;;;;;;;;6287046;28;20032;-54
2022/05/26 00:32:13;;;;;;;44.42;24.10;;;;;;;;;;6288353;28;20481;-58
2022/05/26 00:35:15;;;;;;;46.05;23.05;;;;;;;;;;6288476;28;20568;-56
2022/05/26 00:38:16;;;;;;;41.25;20.65;;;;;;;;;;6290245;28;20446;-55
2022/05/26 00:41:16;;;;;;;41.58;21.38;;;;;;;;;;6293256;28;20758;-55
2022/05/26 00:44:18;;;;;;;48.53;21.17;;;;;;;;;;6288321;28;20036;-57
2022/05/26 00:47:23;;;;;;;40.08;20.10;;;;;;;;;;6290668;28;20040;-56
2022/05/26 00:50:28;;;;;;;39.92;20.60;;;;;;;;;;6285336;28;20136;-54
2022/05/26 00:53:38;;;;;;;41.05;21.65;;;;;;;;;;6286498;28;20589;-56
2022/05/26 00:56:50;;;;;;;42.67;19.90;;;;;;;;;;6287704;28;20052;-58
2022/05/26 01:00:02;;;;;;;42.13;19.98;;;;;;;;;;6288585;28;20475;-55
2022/05/26 01:03:25;;;;;;;42.13;19.25;;;;;;;;;;6289808;28;20091;-55
2022/05/26 01:06:30;;;;;;;38.05;19.80;;;;;;;;;;6287780;28;20132;-56
2022/05/26 01:09:31;;;;;;;42.35;20.05;;;;;;;;;;6287481;28;20041;-57
2022/05/26 01:12:32;;;;;;;38.42;19.05;;;;;;;;;;6287123;28;20047;-57
2022/05/26 01:15:36;;;;;;;41.90;20.58;;;;;;;;;;6285733;28;20076;-58
2022/05/26 01:18:58;;;;;;;41.83;20.85;;;;;;;;;;6290764;28;20049;-53
2022/05/26 01:22:21;;;;;;;41.00;21.15;;;;;;;;;;6290610;28;20044;-59
2022/05/26 01:25:40;;;;;;;38.33;20.23;;;;;;;;;;6286657;28;20048;-57
2022/05/26 01:28:52;;;;;;;40.75;19.95;;;;;;;;;;6289034;28;20135;-56
2022/05/26 01:32:02;;;;;;;38.97;19.02;;;;;;;;;;6288776;28;20133;-55
2022/05/26 01:35:18;;;;;;;36.60;18.42;;;;;;;;;;6289671;28;20047;-55
2022/05/26 01:38:33;;;;;;;37.88;18.85;;;;;;;;;;6294839;28;20173;-60
2022/05/26 01:41:42;;;;;;;38.28;18.20;;;;;;;;;;6286051;28;20716;-55
2022/05/26 01:44:53;;;;;;;34.47;17.45;;;;;;;;;;6287164;28;20045;-56
2022/05/26 01:48:21;;;;;;;35.53;18.50;;;;;;;;;;6289184;28;20041;-53
2022/05/26 01:51:39;;;;;;;44.22;19.45;;;;;;;;;;6287965;28;20097;-59
2022/05/26 01:54:53;;;;;;;40.53;20.10;;;;;;;;;;6287674;28;20044;-60
2022/05/26 01:58:20;;;;;;;37.80;18.02;;;;;;;;;;6290414;28;20055;-55
2022/05/26 02:01:24;;;;;;;41.00;18.95;;;;;;;;;;6285904;28;20483;-56
2022/05/26 02:04:36;;;;;;;35.40;17.75;;;;;;;;;;6284239;28;20063;-56
2022/05/26 02:07:50;;;;;;;37.13;18.47;;;;;;;;;;6287077;28;20487;-51
2022/05/26 02:10:57;;;;;;;37.03;17.10;;;;;;;;;;6284681;28;20033;-58
2022/05/26 02:14:00;;;;;;;36.50;16.40;;;;;;;;;;6304868;28;20037;-55
2022/05/26 02:17:11;;;;;;;36.55;17.55;;;;;;;;;;6288712;28;20127;-54
2022/05/26 02:20:41;;;;;;;36.05;18.15;;;;;;;;;;6285700;28;20051;-56
2022/05/26 02:23:56;;;;;;;41.72;21.13;;;;;;;;;;6286765;28;20084;-55
2022/05/26 02:26:57;;;;;;;40.17;20.45;;;;;;;;;;6286459;28;20051;-55
2022/05/26 02:30:00;;;;;;;42.10;21.27;;;;;;;;;;6285157;28;20829;-55
2022/05/26 02:33:02;;;;;;;45.25;23.40;;;;;;;;;;6287399;28;20064;-51
2022/05/26 02:36:03;;;;;;;41.83;21.15;;;;;;;;;;6289927;28;20083;-54
2022/05/26 02:39:04;;;;;;;42.50;20.70;;;;;;;;;;6287203;28;20049;-54
2022/05/26 02:42:06;;;;;;;40.63;20.55;;;;;;;;;;6287181;28;20079;-58
2022/05/26 02:45:07;;;;;;;39.92;19.88;;;;;;;;;;6285349;28;20085;-58
2022/05/26 02:48:27;;;;;;;42.22;20.63;;;;;;;;;;6285884;28;20041;-56
2022/05/26 02:52:12;;;;;;;40.05;21.30;;;;;;;;;;6286136;28;20136;-55
2022/05/26 02:55:22;;;;;;;38.17;20.25;;;;;;;;;;6297155;28;20186;-57
2022/05/26 02:58:50;;;;;;;40.05;19.55;;;;;;;;;;6290878;28;20040;-56
2022/05/26 03:02:01;;;;;;;36.30;17.58;;;;;;;;;;6288129;28;20060;-56
2022/05/26 03:05:28;;;;;;;31.42;16.67;;;;;;;;;;6285426;28;20041;-56
2022/05/26 03:08:30;;;;;;;39.72;18.13;;;;;;;;;;6276152;28;20036;-57
2022/05/26 03:11:43;;;;;;;38.97;18.30;;;;;;;;;;6286052;28;20052;-56
2022/05/26 03:14:44;;;;;;;36.65;17.98;;;;;;;;;;6286623;28;20094;-53
2022/05/26 03:17:44;;;;;;;37.97;17.67;;;;;;;;;;6284911;28;20135;-55
2022/05/26 03:20:45;;;;;;;36.75;18.20;;;;;;;;;;6288103;28;20048;-57
2022/05/26 03:23:45;;;;;;;41.05;18.90;;;;;;;;;;6284026;28;20053;-54
2022/05/26 03:26:46;;;;;;;40.80;18.23;;;;;;;;;;6285119;28;20041;-55
2022/05/26 03:29:46;;;;;;;35.78;17.67;;;;;;;;;;6283607;28;20152;-55
2022/05/26 03:32:47;;;;;;;35.25;17.42;;;;;;;;;;6292781;28;20054;-55
2022/05/26 03:42:30;;;;;;;28.73;14.52;;;;;;;;;;6292810;28;20191;-56
2022/05/26 03:45:33;;;;;;;27.20;14.07;;;;;;;;;;6292835;28;20139;-57
2022/05/26 03:48:35;;;;;;;27.55;13.63;;;;;;;;;;6296775;28;20380;-58
2022/05/26 03:51:36;;;;;;;25.65;13.07;;;;;;;;;;6293329;28;20051;-57
2022/05/26 03:54:37;;;;;;;24.75;12.85;;;;;;;;;;6293746;28;20500;-55
2022/05/26 03:57:37;;;;;;;26.95;12.95;;;;;;;;;;6294278;28;20529;-57
2022/05/26 04:00:38;;;;;;;25.30;12.82;;;;;;;;;;6287752;28;20202;-58
2022/05/26 04:03:39;;;;;;;23.88;12.07;;;;;;;;;;6299397;28;20105;-56
2022/05/26 04:06:39;;;;;;;24.33;12.30;;;;;;;;;;6289871;28;20772;-55
2022/05/26 04:09:40;;;;;;;23.02;12.38;;;;;;;;;;6292854;28;20047;-56
2022/05/26 04:12:44;;;;;;;22.05;12.50;;;;;;;;;;6289308;28;20407;-55
2022/05/26 04:15:45;;;;;;;28.13;15.80;;;;;;;;;;6298402;28;20060;-55
2022/05/26 04:18:45;;;;;;;26.80;13.18;;;;;;;;;;6288551;28;20064;-56
2022/05/26 04:25:06;;;;;;;28.98;14.02;;;;;;;;;;6292076;28;20063;-56
2022/05/26 04:28:07;;;;;;;27.60;15.53;;;;;;;;;;6298758;28;20098;-55
2022/05/26 04:31:08;;;;;;;28.65;15.15;;;;;;;;;;6299084;28;20329;-51
2022/05/26 04:34:08;;;;;;;30.13;14.82;;;;;;;;;;6291779;28;20041;-60
2022/05/26 04:37:09;;;;;;;29.52;16.02;;;;;;;;;;6292226;28;20563;-58
2022/05/26 04:40:11;;;;;;;31.10;16.30;;;;;;;;;;6284932;28;20036;-55
2022/05/26 04:43:12;;;;;;;30.60;16.38;;;;;;;;;;6308233;28;20052;-53
2022/05/26 04:46:13;;;;;;;27.80;16.13;;;;;;;;;;6303798;28;20088;-57
2022/05/26 04:49:13;;;;;;;25.13;13.57;;;;;;;;;;6291511;28;20380;-57
2022/05/26 04:52:18;;;;;;;28.10;15.32;;;;;;;;;;6301884;28;20043;-57
2022/05/26 04:55:18;;;;;;;32.13;15.82;;;;;;;;;;6289533;28;20083;-59
2022/05/26 04:58:19;;;;;;;28.98;14.50;;;;;;;;;;6287324;28;20037;-55
2022/05/26 05:01:21;;;;;;;24.00;13.30;;;;;;;;;;6292451;28;20044;-56
2022/05/26 05:04:24;;;;;;;28.10;15.57;;;;;;;;;;6297362;28;20094;-57
2022/05/26 05:07:26;;;;;;;28.88;14.73;;;;;;;;;;6294910;28;20076;-58
2022/05/26 05:10:26;;;;;;;30.00;16.55;;;;;;;;;;6298535;28;20068;-56
2022/05/26 05:13:27;;;;;;;30.00;16.85;;;;;;;;;;6284709;28;20048;-57
2022/05/26 05:16:32;;;;;;;28.42;15.75;;;;;;;;;;6285933;28;21718;-54
2022/05/26 05:19:33;;;;;;;28.50;15.77;;;;;;;;;;6284585;28;20045;-57
2022/05/26 05:22:43;;;;;;;29.33;15.05;;;;;;;;;;6292425;28;20418;-58
2022/05/26 05:25:47;;;;;;;27.60;15.52;;;;;;;;;;6292124;28;20044;-56
2022/05/26 05:28:55;;;;;;;27.63;14.63;;;;;;;;;;6293817;28;20044;-57
2022/05/26 05:32:02;;;;;;;25.50;13.48;;;;;;;;;;6286557;28;20094;-56
2022/05/26 05:35:17;;;;;;;26.40;13.75;;;;;;;;;;6290899;28;20048;-56
2022/05/26 05:38:18;;;;;;;23.88;14.40;;;;;;;;;;6294726;28;20541;-58
2022/05/26 05:41:22;;;;;;;23.92;13.95;;;;;;;;;;6296822;28;20075;-56
2022/05/26 05:44:23;;;;;;;24.38;14.30;;;;;;;;;;6286983;28;20951;-60
2022/05/26 05:47:24;;;;;;;23.75;14.07;;;;;;;;;;6283432;28;20131;-59
2022/05/26 05:50:25;;;;;;;26.23;13.43;;;;;;;;;;6293589;28;20476;-56
2022/05/26 05:53:26;;;;;;;24.17;13.05;;;;;;;;;;6282170;28;20135;-61
2022/05/26 05:56:27;;;;;;;26.58;14.15;;;;;;;;;;6283700;28;20055;-57
2022/05/26 05:59:28;;;;;;;23.00;12.88;;;;;;;;;;6300568;28;20048;-56
2022/05/26 06:02:28;;;;;;;23.88;13.32;;;;;;;;;;6285254;28;20143;-59
2022/05/26 06:05:29;;;;;;;22.85;13.27;;;;;;;;;;6287477;28;20510;-55
2022/05/26 06:08:30;;;;;;;23.45;13.18;;;;;;;;;;6290570;28;20040;-55
2022/05/26 06:11:31;;;;;;;23.30;13.38;;;;;;;;;;6285556;28;20174;-55
2022/05/26 06:14:32;;;;;;;22.10;12.35;;;;;;;;;;6283561;28;20586;-56
2022/05/26 06:17:32;;;;;;;21.25;12.38;;;;;;;;;;6285784;28;20048;-56
2022/05/26 06:20:33;;;;;;;23.90;11.73;;;;;;;;;;6287288;28;20137;-56
2022/05/26 06:23:34;;;;;;;23.23;11.57;;;;;;;;;;6285718;28;20514;-58
2022/05/26 06:26:34;;;;;;;21.02;12.52;;;;;;;;;;6287687;28;20164;-56
2022/05/26 06:29:51;;;;;;;20.25;11.35;;;;;;;;;;6285589;28;20045;-56
2022/05/26 06:39:34;;;;;;;18.10;9.57;;;;;;;;;;6299761;28;20068;-56
2022/05/26 06:42:35;;;;;;;18.20;10.32;;;;;;;;;;6287366;28;20059;-59
2022/05/26 06:45:36;;;;;;;18.50;10.90;;;;;;;;;;6284007;28;20613;-59
2022/05/26 06:48:37;;;;;;;15.73;9.88;;;;;;;;;;6286396;28;20055;-55
2022/05/26 06:51:39;;;;;;;12.65;7.93;;;;;;;;;;6285084;28;20139;-56
2022/05/26 06:54:43;;;;;;;18.95;8.98;;;;;;;;;;6284649;28;20074;-56
2022/05/26 06:57:43;;;;;;;14.43;8.63;;;;;;;;;;6285926;28;20495;-55
2022/05/26 07:00:45;;;;;;;17.58;8.93;;;;;;;;;;6296224;28;20040;-57
2022/05/26 07:03:46;;;;;;;12.47;8.57;;;;;;;;;;6286201;28;20063;-58
2022/05/26 07:06:52;;;;;;;11.82;7.50;;;;;;;;;;6294766;28;20300;-58
2022/05/26 07:09:54;;;;;;;12.90;7.50;;;;;;;;;;6297328;28;20041;-57
2022/05/26 07:12:56;;;;;;;16.33;8.32;;;;;;;;;;6292541;28;20074;-59
2022/05/26 07:15:57;;;;;;;11.13;7.68;;;;;;;;;;6291949;28;20059;-61
2022/05/26 07:18:57;;;;;;;12.40;7.93;;;;;;;;;;6304382;28;20055;-59
2022/05/26 07:21:58;;;;;;;15.70;8.00;;;;;;;;;;6293689;28;20135;-56
2022/05/26 07:24:59;;;;;;;12.25;7.00;;;;;;;;;;6289037;28;20071;-57
2022/05/26 07:27:59;;;;;;;11.15;7.13;;;;;;;;;;6289163;28;20162;-59
2022/05/26 07:31:00;;;;;;;9.90;7.15;;;;;;;;;;6288866;28;20053;-57
2022/05/26 07:34:01;;;;;;;11.05;7.03;;;;;;;;;;6290632;28;20136;-60
2022/05/26 07:43:40;;;;;;;11.55;6.55;;;;;;;;;;6291456;28;20048;-60
2022/05/26 07:46:40;;;;;;;11.30;6.57;;;;;;;;;;6289701;28;20205;-58
2022/05/26 07:49:45;;;;;;;14.30;6.70;;;;;;;;;;6299913;28;20105;-58
2022/05/26 07:52:50;;;;;;;10.82;6.32;;;;;;;;;;6288087;28;20051;-58
2022/05/26 07:55:51;;;;;;;11.93;6.07;;;;;;;;;;6285678;28;20770;-55
2022/05/26 07:58:52;;;;;;;14.13;6.55;;;;;;;;;;6289838;28;20182;-58
2022/05/26 08:01:52;;;;;;;13.40;6.18;;;;;;;;;;6291084;28;21039;-60
2022/05/26 08:04:53;;;;;;;10.55;6.10;;;;;;;;;;6291790;28;20139;-57
2022/05/26 08:07:54;;;;;;;9.18;5.70;;;;;;;;;;6290991;28;20045;-60
2022/05/26 08:10:54;;;;;;;12.63;6.03;;;;;;;;;;6293072;28;20595;-58
2022/05/26 08:13:55;;;;;;;11.50;5.68;;;;;;;;;;6292950;28;20055;-57
2022/05/26 08:16:55;;;;;;;9.48;5.00;;;;;;;;;;6289886;28;20051;-58
2022/05/26 08:19:56;;;;;;;7.00;4.82;;;;;;;;;;6288900;28;20044;-57
2022/05/26 08:22:56;;;;;;;8.13;5.30;;;;;;;;;;6289599;28;20139;-56
2022/05/26 08:25:57;;;;;;;10.23;4.68;;;;;;;;;;6286559;28;20194;-57
2022/05/26 08:28:58;;;;;;;6.03;4.73;;;;;;;;;;6290005;28;20143;-58
2022/05/26 08:31:59;;;;;;;9.82;4.70;;;;;;;;;;6293021;28;20063;-56
2022/05/26 08:35:02;;;;;;;9.93;4.90;;;;;;;;;;6308373;28;20539;-55
2022/05/26 08:38:03;;;;;;;10.27;4.68;;;;;;;;;;6286696;28;20491;-61
2022/05/26 08:41:05;;;;;;;8.82;4.55;;;;;;;;;;6292996;28;20122;-59
2022/05/26 08:44:27;;;;;;;9.95;4.40;;;;;;;;;;6335286;28;20541;-56
2022/05/26 08:47:33;;;;;;;6.78;4.00;;;;;;;;;;6318275;28;20051;-58
2022/05/26 08:50:35;;;;;;;7.80;3.75;;;;;;;;;;6303113;28;20064;-59
2022/05/26 08:53:39;;;;;;;9.70;4.03;;;;;;;;;;6288149;28;20045;-56
2022/05/26 08:56:40;;;;;;;6.20;3.28;;;;;;;;;;6290196;28;20071;-57
2022/05/26 08:59:44;;;;;;;9.17;3.30;;;;;;;;;;6287863;28;20052;-60
2022/05/26 09:02:45;;;;;;;5.90;3.30;;;;;;;;;;6287041;28;20072;-61
2022/05/26 09:05:51;;;;;;;6.45;3.63;;;;;;;;;;6288764;28;20051;-59
2022/05/26 09:15:36;;;;;;;7.63;3.65;;;;;;;;;;6287396;28;20389;-60
2022/05/26 09:18:37;;;;;;;8.15;3.03;;;;;;;;;;6287453;28;20127;-58
2022/05/26 09:21:39;;;;;;;4.95;2.75;;;;;;;;;;6287931;28;20470;-61
2022/05/26 09:24:39;;;;;;;6.18;3.00;;;;;;;;;;6287520;28;20052;-57
2022/05/26 09:27:50;;;;;;;5.97;3.15;;;;;;;;;;6285907;28;20047;-60
2022/05/26 09:30:52;;;;;;;6.38;3.40;;;;;;;;;;6300017;28;20040;-58
2022/05/26 09:34:11;;;;;;;;;;;;;;;;;;6286225;28;20132;-61
2022/05/26 09:37:12;;;;;;;7.07;3.15;;;;;;;;;;6284674;28;19920;-57
2022/05/26 09:40:29;;;;;;;5.70;3.53;;;;;;;;;;6290031;28;20055;-60
2022/05/26 09:43:31;;;;;;;6.13;2.95;;;;;;;;;;6283801;28;20051;-61
2022/05/26 09:46:31;;;;;;;7.35;3.20;;;;;;;;;;6287759;28;20036;-54
2022/05/26 09:49:38;;;;;;;8.87;3.00;;;;;;;;;;6287325;28;20143;-56
2022/05/26 09:52:49;;;;;;;4.55;3.00;;;;;;;;;;6294096;28;20706;-55
2022/05/26 09:55:51;;;;;;;6.82;2.78;;;;;;;;;;6292657;28;20118;-60
2022/05/26 09:58:52;;;;;;;9.00;3.08;;;;;;;;;;6289122;28;20052;-56
2022/05/26 10:02:04;;;;;;;4.75;2.72;;;;;;;;;;6289496;28;20080;-57
2022/05/26 10:05:18;;;;;;;4.15;2.35;;;;;;;;;;6297492;28;21111;-60
2022/05/26 10:08:30;;;;;;;4.30;2.58;;;;;;;;;;6298908;28;20044;-58
2022/05/26 10:11:51;;;;;;;5.82;2.45;;;;;;;;;;6291152;28;20661;-57
2022/05/26 10:15:16;;;;;;;8.45;2.53;;;;;;;;;;6293612;28;20049;-55
2022/05/26 10:18:48;;;;;;;3.88;2.20;;;;;;;;;;6289883;28;20087;-55
2022/05/26 10:21:52;;;;;;;6.57;2.55;;;;;;;;;;6289457;28;20657;-59
2022/05/26 10:25:21;;;;;;;5.50;2.40;;;;;;;;;;6294600;28;20032;-58
2022/05/26 10:29:02;;;;;;;3.33;2.03;;;;;;;;;;6295754;28;20486;-57
2022/05/26 10:32:02;;;;;;;4.53;2.40;;;;;;;;;;6289075;28;20483;-57
2022/05/26 10:35:26;;;;;;;4.07;2.17;;;;;;;;;;6286623;28;20063;-56
2022/05/26 10:38:54;;;;;;;3.30;2.05;;;;;;;;;;6284783;28;21060;-58
2022/05/26 10:42:02;;;;;;;4.85;2.08;;;;;;;;;;6285508;28;20083;-57
2022/05/26 10:45:19;;;;;;;4.13;2.20;;;;;;;;;;6281377;28;20094;-54
2022/05/26 10:48:36;;;;;;;4.80;2.03;;;;;;;;;;6283534;28;20058;-57
2022/05/26 10:51:47;;;;;;;4.18;2.00;;;;;;;;;;6281582;28;20068;-55
2022/05/26 10:55:05;;;;;;;7.18;2.00;;;;;;;;;;6281353;28;20184;-61
2022/05/26 10:58:19;;;;;;;4.43;2.17;;;;;;;;;;6288654;28;20036;-58
2022/05/26 11:01:28;;;;;;;3.15;1.80;;;;;;;;;;6288242;28;20095;-57
2022/05/26 11:04:42;;;;;;;6.93;2.15;;;;;;;;;;6288232;28;20127;-58
2022/05/26 11:07:58;;;;;;;4.68;1.85;;;;;;;;;;6284552;28;20411;-56
2022/05/26 11:11:13;;;;;;;4.78;1.90;;;;;;;;;;6286124;28;20641;-55
2022/05/26 11:18:27;;;;;;;4.93;2.17;;;;;;;;;;6284223;28;20087;-56
2022/05/26 11:21:28;;;;;;;4.82;2.10;;;;;;;;;;6271122;28;20073;-57
2022/05/26 11:24:29;;;;;;;5.57;2.10;;;;;;;;;;6280991;28;21083;-58
2022/05/26 11:28:14;;;;;;;7.33;2.20;;;;;;;;;;6287405;28;20048;-59
2022/05/26 11:38:48;;;;;;;6.35;1.85;;;;;;;;;;6289694;28;20106;-58
2022/05/26 11:41:53;;;;;;;3.95;2.10;;;;;;;;;;6289251;28;20040;-59
2022/05/26 11:45:09;;;;;;;3.53;2.03;;;;;;;;;;6297627;28;20040;-60
2022/05/26 11:48:31;;;;;;;5.18;2.40;;;;;;;;;;6277029;28;20154;-60
2022/05/26 11:51:41;;;;;;;3.75;2.10;;;;;;;;;;6279907;28;20064;-58
2022/05/26 11:54:55;;;;;;;5.38;2.00;;;;;;;;;;6284942;28;20051;-55
2022/05/26 11:57:58;;;;;;;6.10;2.25;;;;;;;;;;6288339;28;20063;-60
2022/05/26 12:01:15;;;;;;;4.80;2.13;;;;;;;;;;6291379;28;20094;-56
2022/05/26 12:04:31;;;;;;;5.35;2.03;;;;;;;;;;6285994;28;20098;-61
2022/05/26 12:07:37;;;;;;;3.97;2.03;;;;;;;;;;6288471;28;20056;-56
2022/05/26 12:10:49;;;;;;;5.30;1.98;;;;;;;;;;6287845;28;21998;-60
2022/05/26 12:14:03;;;;;;;3.65;2.10;;;;;;;;;;6285263;28;20769;-55
2022/05/26 12:17:30;;;;;;;8.57;2.38;;;;;;;;;;6289908;28;21211;-60
2022/05/26 12:20:33;;;;;;;6.03;2.20;;;;;;;;;;6289698;28;20051;-59
2022/05/26 12:23:34;;;;;;;3.90;1.88;;;;;;;;;;6285506;28;21326;-60
2022/05/26 12:26:49;;;;;;;6.45;2.30;;;;;;;;;;6285635;28;20044;-59
2022/05/26 12:29:55;;;;;;;9.40;2.15;;;;;;;;;;6292545;28;20087;-60
2022/05/26 12:32:56;;;;;;;4.00;2.00;;;;;;;;;;6295462;28;20046;-60
2022/05/26 12:36:35;;;;;;;4.22;2.10;;;;;;;;;;6287190;28;20135;-59
2022/05/26 12:40:14;;;;;;;4.80;2.08;;;;;;;;;;6285622;28;20036;-59
2022/05/26 12:43:36;;;;;;;5.85;2.00;;;;;;;;;;6286569;28;20143;-59
2022/05/26 12:47:15;;;;;;;5.13;2.10;;;;;;;;;;6289481;28;20047;-60
2022/05/26 12:50:18;;;;;;;6.82;2.00;;;;;;;;;;6287834;28;20859;-59
2022/05/26 12:53:24;;;;;;;5.90;2.20;;;;;;;;;;6283824;28;20044;-57
2022/05/26 12:56:44;;;;;;;3.45;2.05;;;;;;;;;;6286584;28;20062;-59
2022/05/26 12:59:44;;;;;;;5.90;2.33;;;;;;;;;;6286666;28;20525;-60
2022/05/26 13:02:50;;;;;;;3.93;2.10;;;;;;;;;;6288977;28;20083;-60
2022/05/26 13:06:26;;;;;;;4.93;2.30;;;;;;;;;;6285816;28;20150;-61
2022/05/26 13:09:30;;;;;;;6.40;2.17;;;;;;;;;;6287845;28;20040;-57
2022/05/26 13:12:31;;;;;;;4.72;2.35;;;;;;;;;;6290977;28;20142;-59
2022/05/26 13:15:32;;;;;;;4.30;2.10;;;;;;;;;;6290133;28;20434;-59
2022/05/26 13:18:36;;;;;;;4.93;2.07;;;;;;;;;;6290322;28;20044;-56
2022/05/26 13:21:37;;;;;;;5.22;2.30;;;;;;;;;;6287626;28;20086;-58
2022/05/26 13:24:48;;;;;;;6.00;2.40;;;;;;;;;;6295593;28;21037;-60
2022/05/26 13:28:08;;;;;;;5.53;2.42;;;;;;;;;;6287368;28;20078;-61
2022/05/26 13:34:31;;;;;;;5.93;2.47;;;;;;;;;;6287657;28;20587;-60
2022/05/26 13:37:32;;;;;;;7.90;2.63;;;;;;;;;;6287042;28;20048;-60
2022/05/26 13:40:32;;;;;;;7.03;2.47;;;;;;;;;;6283826;28;20052;-60
2022/05/26 13:43:37;;;;;;;4.13;2.13;;;;;;;;;;6277428;28;20052;-61
2022/05/26 13:46:49;;;;;;;4.55;2.10;;;;;;;;;;6281845;28;20112;-60
2022/05/26 13:50:05;;;;;;;4.55;2.00;;;;;;;;;;6283908;28;21120;-61
2022/05/26 13:53:08;;;;;;;3.60;2.28;;;;;;;;;;6285766;28;20403;-60
2022/05/26 13:56:14;;;;;;;4.55;1.90;;;;;;;;;;6289901;28;20096;-59
2022/05/26 13:59:16;;;;;;;7.93;2.00;;;;;;;;;;6283638;28;20174;-59
2022/05/26 14:02:21;;;;;;;3.97;2.20;;;;;;;;;;6282366;28;20070;-60
2022/05/26 14:05:26;;;;;;;5.45;2.10;;;;;;;;;;6289827;28;20349;-55
2022/05/26 14:08:28;;;;;;;5.00;2.13;;;;;;;;;;6283886;28;20055;-59
2022/05/26 14:11:38;;;;;;;5.35;2.17;;;;;;;;;;6284956;28;20048;-57
2022/05/26 14:14:44;;;;;;;5.25;2.03;;;;;;;;;;6284620;28;20066;-58
2022/05/26 14:17:53;;;;;;;4.20;1.88;;;;;;;;;;6292111;28;20490;-59
2022/05/26 14:21:00;;;;;;;4.82;1.88;;;;;;;;;;6290026;28;20055;-58
2022/05/26 14:24:04;;;;;;;3.33;1.70;;;;;;;;;;6282641;28;20407;-60
2022/05/26 14:27:15;;;;;;;4.80;2.10;;;;;;;;;;6284191;28;20101;-59
2022/05/26 14:30:51;;;;;;;4.43;2.00;;;;;;;;;;6281016;28;20053;-56
2022/05/26 14:34:07;;;;;;;3.70;1.83;;;;;;;;;;6272429;28;20897;-59
2022/05/26 14:37:08;;;;;;;7.05;1.77;;;;;;;;;;6282142;28;20071;-59
2022/05/26 14:40:10;;;;;;;2.83;1.60;;;;;;;;;;6288525;28;20503;-58
2022/05/26 14:43:16;;;;;;;3.90;1.40;;;;;;;;;;6288820;28;20101;-57
2022/05/26 14:46:17;;;;;;;4.47;1.52;;;;;;;;;;6290552;28;20177;-59
2022/05/26 14:49:17;;;;;;;2.43;1.30;;;;;;;;;;6281096;28;20055;-57
2022/05/26 14:52:22;;;;;;;6.80;1.70;;;;;;;;;;6281133;28;20051;-54
2022/05/26 14:55:29;;;;;;;3.05;1.70;;;;;;;;;;6283094;28;20082;-59
2022/05/26 14:58:30;;;;;;;4.65;1.80;;;;;;;;;;6280367;28;20474;-61
2022/05/26 15:01:31;;;;;;;3.87;1.50;;;;;;;;;;6277972;28;20572;-57
2022/05/26 15:04:32;;;;;;;5.03;2.10;;;;;;;;;;6278454;28;20057;-56
2022/05/26 15:07:34;;;;;;;8.27;1.70;;;;;;;;;;6300936;28;20044;-77
2022/05/26 15:10:35;;;;;;;2.47;1.42;;;;;;;;;;6285927;28;20070;-61
2022/05/26 15:13:36;;;;;;;2.27;1.37;;;;;;;;;;6279239;28;20048;-66
2022/05/26 15:16:40;;;;;;;4.77;1.57;;;;;;;;;;6281173;28;20134;-57
2022/05/26 15:19:47;;;;;;;5.03;1.45;;;;;;;;;;6284870;28;20082;-60
2022/05/26 15:22:47;;;;;;;3.72;1.50;;;;;;;;;;6294953;28;20771;-59
2022/05/26 15:26:30;;;;;;;6.23;1.70;;;;;;;;;;6300014;28;20205;-59
2022/05/26 15:29:12;;;;;;;11.23;2.15;;;;;;;;;;6290097;28;20059;-61
2022/05/26 15:32:26;;;;;;;5.03;1.20;;;;;;;;;;6283761;28;20109;-60
2022/05/26 15:35:27;;;;;;;3.70;1.50;;;;;;;;;;6286601;28;20101;-57
2022/05/26 15:38:34;;;;;;;5.27;1.60;;;;;;;;;;6280699;28;20040;-59
2022/05/26 15:41:35;;;;;;;4.43;1.55;;;;;;;;;;6288714;28;20087;-59
2022/05/26 15:44:36;;;;;;;5.10;2.00;;;;;;;;;;6290752;28;20667;-61
2022/05/26 15:47:39;;;;;;;6.40;2.03;;;;;;;;;;6288158;28;20029;-61
2022/05/26 15:50:40;;;;;;;4.45;1.92;;;;;;;;;;6285380;28;22206;-58
2022/05/26 15:53:40;;;;;;;4.73;1.90;;;;;;;;;;6289828;28;20051;-60
2022/05/26 15:56:44;;;;;;;4.40;1.47;;;;;;;;;;6293915;28;20574;-61
2022/05/26 15:59:45;;;;;;;4.22;1.80;;;;;;;;;;6295408;28;20933;-60
2022/05/26 16:02:46;;;;;;;4.33;1.60;;;;;;;;;;6301533;28;20186;-59
2022/05/26 16:05:47;;;;;;;4.22;1.70;;;;;;;;;;6312400;28;20056;-61
2022/05/26 16:08:47;;;;;;;4.47;1.70;;;;;;;;;;6309052;28;20418;-60
2022/05/26 16:11:50;;;;;;;3.47;1.53;;;;;;;;;;6307652;28;20048;-59
2022/05/26 16:14:51;;;;;;;4.13;1.77;;;;;;;;;;6307384;28;20143;-58
2022/05/26 16:17:52;;;;;;;4.30;1.80;;;;;;;;;;6309567;28;20067;-59
2022/05/26 16:20:53;;;;;;;4.88;1.83;;;;;;;;;;6311723;28;20541;-59
2022/05/26 16:23:57;;;;;;;4.00;1.70;;;;;;;;;;6314955;28;20047;-59
2022/05/26 16:27:02;;;;;;;3.10;1.55;;;;;;;;;;6312694;28;20205;-59
2022/05/26 16:30:04;;;;;;;3.78;1.55;;;;;;;;;;6311213;28;20040;-59
2022/05/26 16:33:06;;;;;;;4.68;1.63;;;;;;;;;;6309120;28;20047;-60
2022/05/26 16:39:29;;;;;;;3.17;1.40;;;;;;;;;;6310386;28;20135;-59
2022/05/26 16:42:30;;;;;;;3.60;1.65;;;;;;;;;;6309203;28;20510;-61
2022/05/26 16:45:36;;;;;;;3.88;1.52;;;;;;;;;;6311706;28;20083;-59
2022/05/26 16:48:37;;;;;;;4.13;1.33;;;;;;;;;;6307369;28;20380;-59
2022/05/26 16:51:40;;;;;;;3.07;1.50;;;;;;;;;;6306600;28;20471;-61
2022/05/26 16:54:41;;;;;;;4.25;1.50;;;;;;;;;;6310097;28;20339;-58
2022/05/26 16:57:42;;;;;;;5.03;1.80;;;;;;;;;;6313070;28;21073;-63
2022/05/26 17:00:42;;;;;;;4.78;1.50;;;;;;;;;;6304928;28;20574;-58
2022/05/26 17:03:43;;;;;;;4.97;1.57;;;;;;;;;;6316889;28;20058;-58
2022/05/26 17:06:44;;;;;;;5.03;2.05;;;;;;;;;;6308608;28;20047;-60
2022/05/26 17:09:44;;;;;;;4.33;1.93;;;;;;;;;;6306753;28;20425;-59
2022/05/26 17:22:44;;;;;;;4.40;1.70;;;;;;;;;;6302472;28;20079;-60
2022/05/26 17:25:44;;;;;;;5.75;1.92;;;;;;;;;;6312561;28;20047;-58
2022/05/26 17:28:45;;;;;;;12.63;4.93;;;;;;;;;;6308429;28;20512;-60
2022/05/26 17:31:45;;;;;;;11.20;3.90;;;;;;;;;;6307246;28;20048;-60
2022/05/26 17:34:47;;;;;;;11.33;4.27;;;;;;;;;;6312041;28;20059;-60
2022/05/26 17:37:48;;;;;;;11.53;3.83;;;;;;;;;;6311844;28;20106;-60
2022/05/26 17:40:49;;;;;;;11.70;3.90;;;;;;;;;;6308194;28;20055;-60
2022/05/26 17:43:49;;;;;;;7.20;2.30;;;;;;;;;;6313680;28;20779;-60
2022/05/26 17:46:52;;;;;;;7.37;2.97;;;;;;;;;;6305416;28;20855;-61
2022/05/26 17:49:52;;;;;;;6.72;2.90;;;;;;;;;;6311414;28;20044;-60
2022/05/26 17:52:54;;;;;;;8.97;2.87;;;;;;;;;;6308033;28;20762;-60
2022/05/26 17:55:54;;;;;;;7.68;3.60;;;;;;;;;;6305421;28;20062;-60
2022/05/26 17:58:55;;;;;;;7.47;2.80;;;;;;;;;;6309606;28;20036;-59
2022/05/26 18:01:56;;;;;;;8.47;2.90;;;;;;;;;;6309249;28;20043;-59
2022/05/26 18:04:57;;;;;;;8.98;3.08;;;;;;;;;;6307459;28;20039;-60
2022/05/26 18:07:58;;;;;;;9.57;3.27;;;;;;;;;;6308820;28;20045;-60
2022/05/26 18:10:59;;;;;;;6.37;2.40;;;;;;;;;;6309888;28;20047;-59
2022/05/26 18:14:00;;;;;;;5.60;2.58;;;;;;;;;;6310608;28;20051;-59
2022/05/26 18:17:02;;;;;;;4.90;2.60;;;;;;;;;;6304577;28;20048;-59
2022/05/26 18:20:04;;;;;;;;;;;;;;;;;;6309629;28;20517;-60
2022/05/26 18:23:09;;;;;;;5.10;2.80;;;;;;;;;;6311308;28;19924;-61
2022/05/26 18:26:10;;;;;;;5.18;2.53;;;;;;;;;;6309779;28;20048;-60
2022/05/26 18:29:12;;;;;;;5.43;2.60;;;;;;;;;;6313130;28;20166;-59
2022/05/26 18:32:18;;;;;;;7.07;3.17;;;;;;;;;;6304960;28;20056;-60
2022/05/26 18:35:26;;;;;;;6.72;2.83;;;;;;;;;;6311730;28;20079;-60
2022/05/26 18:38:28;;;;;;;6.47;3.20;;;;;;;;;;6305422;28;20047;-60
2022/05/26 18:41:29;;;;;;;6.07;2.53;;;;;;;;;;6305331;28;20123;-60
2022/05/26 18:44:34;;;;;;;6.43;3.00;;;;;;;;;;6306982;28;20832;-61
2022/05/26 18:47:40;;;;;;;5.60;2.70;;;;;;;;;;6306418;28;20048;-60
2022/05/26 18:50:43;;;;;;;6.40;2.67;;;;;;;;;;6308874;28;20040;-60
2022/05/26 18:53:43;;;;;;;9.45;3.00;;;;;;;;;;6306190;28;20135;-60
2022/05/26 18:56:44;;;;;;;5.50;2.70;;;;;;;;;;6309194;28;20452;-61
2022/05/26 18:59:45;;;;;;;6.10;2.45;;;;;;;;;;6312071;28;20078;-59
2022/05/26 19:02:46;;;;;;;6.53;2.90;;;;;;;;;;6302628;28;20056;-59
2022/05/26 19:05:58;;;;;;;9.13;3.08;;;;;;;;;;6310804;28;20051;-60
2022/05/26 19:08:59;;;;;;;7.07;2.58;;;;;;;;;;6318910;28;20484;-59
2022/05/26 19:11:59;;;;;;;7.10;3.50;;;;;;;;;;6312519;28;20564;-56
2022/05/26 19:15:01;;;;;;;5.73;2.83;;;;;;;;;;6309758;28;20039;-60
2022/05/26 19:18:07;;;;;;;7.45;2.97;;;;;;;;;;6312885;28;20059;-58
2022/05/26 19:21:07;;;;;;;8.07;3.08;;;;;;;;;;6307624;28;20051;-59